createdAt,value
2023-05-20T00:01:20.040Z,4.05
2023-05-20T00:04:08.019Z,3.95
2023-05-20T00:06:56.685Z,5.38
2023-05-20T00:09:45.833Z,4.28
2023-05-20T00:12:35.423Z,4.32
2023-05-20T00:15:23.110Z,4.20
2023-05-20T00:18:11.153Z,5.43
2023-05-20T00:21:01.532Z,4.20
2023-05-20T00:23:49.468Z,5.68
2023-05-20T00:26:37.573Z,5.30
2023-05-20T00:29:25.517Z,5.38
2023-05-20T00:32:13.488Z,4.40
2023-05-20T00:35:02.168Z,6.95
2023-05-20T00:37:50.097Z,6.90
2023-05-20T00:40:38.014Z,5.68
2023-05-20T00:43:27.035Z,6.30
2023-05-20T00:46:14.863Z,4.05
2023-05-20T00:49:03.000Z,6.18
2023-05-20T00:51:50.849Z,7.18
2023-05-20T00:54:40.383Z,4.80
2023-05-20T00:57:28.080Z,7.15
2023-05-20T01:00:16.452Z,5.78
2023-05-20T01:03:04.567Z,4.70
2023-05-20T01:05:52.277Z,4.40
2023-05-20T01:08:40.780Z,5.43
2023-05-20T01:11:34.666Z,6.90
2023-05-20T01:14:27.549Z,5.00
2023-05-20T01:17:18.050Z,5.40
2023-05-20T01:20:12.990Z,5.03
2023-05-20T01:23:00.932Z,5.50
2023-05-20T01:25:48.918Z,4.28
2023-05-20T01:28:39.468Z,6.50
2023-05-20T01:31:33.555Z,6.72
2023-05-20T01:37:10.979Z,5.05
2023-05-20T01:39:59.469Z,6.18
2023-05-20T01:42:53.670Z,4.88
2023-05-20T01:48:29.792Z,6.93
2023-05-20T01:51:18.093Z,6.85
2023-05-20T01:54:06.055Z,6.38
2023-05-20T01:56:54.086Z,7.30
2023-05-20T01:59:41.905Z,6.30
2023-05-20T02:02:29.729Z,6.90
2023-05-20T02:05:17.623Z,5.68
2023-05-20T02:08:05.836Z,5.40
2023-05-20T02:10:54.016Z,5.43
2023-05-20T02:13:41.867Z,5.53
2023-05-20T02:16:29.622Z,5.57
2023-05-20T02:19:23.873Z,6.50
2023-05-20T02:22:11.948Z,6.32
2023-05-20T02:24:59.568Z,6.50
2023-05-20T02:27:47.402Z,7.28
2023-05-20T02:30:35.140Z,7.30
2023-05-20T02:33:23.001Z,7.13
2023-05-20T02:36:11.058Z,4.72
2023-05-20T02:38:58.661Z,5.57
2023-05-20T02:41:46.906Z,8.65
2023-05-20T02:44:34.535Z,6.45
2023-05-20T02:47:22.546Z,6.95
2023-05-20T02:50:10.814Z,5.07
2023-05-20T02:52:58.547Z,6.45
2023-05-20T02:55:47.943Z,5.50
2023-05-20T02:58:36.033Z,8.38
2023-05-20T03:01:23.916Z,5.72
2023-05-20T03:04:11.814Z,4.95
2023-05-20T03:06:59.430Z,8.80
2023-05-20T03:09:47.808Z,9.40
2023-05-20T03:12:35.769Z,5.72
2023-05-20T03:15:23.510Z,6.15
2023-05-20T03:18:12.778Z,6.45
2023-05-20T03:21:00.482Z,5.45
2023-05-20T03:23:48.963Z,7.05
2023-05-20T03:26:38.629Z,6.30
2023-05-20T03:29:26.158Z,5.80
2023-05-20T03:32:13.808Z,6.68
2023-05-20T03:35:01.466Z,6.60
2023-05-20T03:37:49.239Z,8.93
2023-05-20T03:40:37.158Z,6.68
2023-05-20T03:43:25.750Z,7.07
2023-05-20T03:46:13.661Z,7.20
2023-05-20T03:49:02.588Z,5.63
2023-05-20T03:51:50.389Z,7.45
2023-05-20T03:54:38.169Z,6.82
2023-05-20T03:57:26.415Z,6.25
2023-05-20T04:00:15.212Z,5.95
2023-05-20T04:03:03.272Z,6.22
2023-05-20T04:05:51.360Z,9.77
2023-05-20T04:08:39.371Z,7.00
2023-05-20T04:11:27.294Z,8.27
2023-05-20T04:14:15.774Z,6.40
2023-05-20T04:17:05.016Z,10.45
2023-05-20T04:19:52.747Z,7.90
2023-05-20T04:22:41.065Z,7.32
2023-05-20T04:25:28.916Z,6.47
2023-05-20T04:28:17.571Z,6.72
2023-05-20T04:31:05.560Z,7.90
2023-05-20T04:33:57.735Z,9.60
2023-05-20T04:36:45.896Z,6.65
2023-05-20T04:39:33.840Z,6.72
2023-05-20T04:42:24.217Z,8.35
2023-05-20T04:45:12.829Z,6.47
2023-05-20T04:48:00.413Z,7.97
2023-05-20T04:50:55.213Z,7.25
2023-05-20T04:53:45.991Z,7.70
2023-05-20T04:56:34.007Z,7.57
2023-05-20T04:59:22.003Z,10.60
2023-05-20T05:02:10.546Z,10.63
2023-05-20T05:04:58.328Z,6.97
2023-05-20T05:07:46.126Z,11.10
2023-05-20T05:10:33.990Z,11.80
2023-05-20T05:13:21.642Z,7.60
2023-05-20T05:16:09.564Z,8.77
2023-05-20T05:18:57.498Z,9.55
2023-05-20T05:21:45.417Z,8.20
2023-05-20T05:24:33.064Z,7.75
2023-05-20T05:27:24.148Z,7.57
2023-05-20T05:30:12.111Z,7.63
2023-05-20T05:32:59.859Z,8.68
2023-05-20T05:35:48.124Z,7.35
2023-05-20T05:38:36.058Z,7.78
2023-05-20T05:41:23.873Z,10.27
2023-05-20T05:44:11.432Z,8.23
2023-05-20T05:46:59.378Z,7.90
2023-05-20T05:49:50.059Z,10.27
2023-05-20T05:52:37.847Z,8.25
2023-05-20T05:55:26.365Z,13.32
2023-05-20T05:58:17.427Z,7.78
2023-05-20T06:01:05.263Z,10.15
2023-05-20T06:03:53.220Z,7.72
2023-05-20T06:06:41.926Z,8.07
2023-05-20T06:09:30.507Z,12.00
2023-05-20T06:12:18.483Z,8.10
2023-05-20T06:15:09.786Z,8.13
2023-05-20T06:17:57.695Z,10.60
2023-05-20T06:20:45.553Z,9.15
2023-05-20T06:23:39.377Z,10.00
2023-05-20T06:26:27.123Z,12.88
2023-05-20T06:29:14.965Z,8.48
2023-05-20T06:32:03.428Z,9.20
2023-05-20T06:34:51.170Z,9.40
2023-05-20T06:37:38.980Z,10.07
2023-05-20T06:40:29.240Z,10.80
2023-05-20T06:43:17.471Z,9.32
2023-05-20T06:46:05.513Z,10.23
2023-05-20T06:48:59.009Z,9.18
2023-05-20T06:51:46.631Z,10.15
2023-05-20T06:54:48.957Z,12.75
2023-05-20T06:57:42.132Z,9.93
2023-05-20T07:00:30.111Z,10.77
2023-05-20T07:03:17.726Z,12.45
2023-05-20T07:06:08.777Z,10.30
2023-05-20T07:08:56.850Z,10.05
2023-05-20T07:11:44.646Z,11.27
2023-05-20T07:14:32.446Z,13.23
2023-05-20T07:17:20.115Z,11.55
2023-05-20T07:20:08.408Z,11.82
2023-05-20T07:22:56.257Z,12.15
2023-05-20T07:25:44.030Z,11.60
2023-05-20T07:28:31.914Z,11.43
2023-05-20T07:31:19.906Z,11.57
2023-05-20T07:34:07.790Z,11.80
2023-05-20T07:36:55.444Z,11.82
2023-05-20T07:39:43.155Z,11.27
2023-05-20T07:42:31.113Z,12.07
2023-05-20T07:45:19.456Z,12.27
2023-05-20T07:48:09.059Z,11.07
2023-05-20T07:50:59.914Z,13.40
2023-05-20T07:53:48.700Z,12.05
2023-05-20T07:56:39.376Z,12.15
2023-05-20T07:59:27.427Z,11.18
2023-05-20T08:02:16.279Z,11.38
2023-05-20T08:05:05.139Z,13.00
2023-05-20T08:08:01.385Z,11.23
2023-05-20T08:10:51.249Z,11.65
2023-05-20T08:13:42.458Z,10.80
2023-05-20T08:16:32.951Z,14.48
2023-05-20T08:19:21.191Z,11.02
2023-05-20T08:22:09.131Z,10.65
2023-05-20T08:24:57.020Z,11.35
2023-05-20T08:27:45.844Z,10.75
2023-05-20T08:30:35.597Z,9.95
2023-05-20T08:33:28.054Z,9.32
2023-05-20T08:36:20.009Z,12.90
2023-05-20T08:39:10.201Z,9.45
2023-05-20T08:42:07.050Z,9.82
2023-05-20T08:44:59.913Z,11.20
2023-05-20T08:47:51.163Z,10.88
2023-05-20T08:50:43.419Z,9.77
2023-05-20T08:53:34.142Z,9.70
2023-05-20T08:56:29.987Z,9.60
2023-05-20T08:59:25.588Z,9.05
2023-05-20T09:02:19.054Z,8.55
2023-05-20T09:05:12.064Z,9.30
2023-05-20T09:08:10.321Z,11.15
2023-05-20T09:10:58.241Z,10.68
2023-05-20T09:13:46.119Z,15.10
2023-05-20T09:16:34.587Z,16.40
2023-05-20T09:19:26.460Z,12.07
2023-05-20T09:22:14.997Z,15.07
2023-05-20T09:25:03.053Z,12.13
2023-05-20T09:27:51.123Z,11.35
2023-05-20T09:30:39.075Z,10.93
2023-05-20T09:33:34.084Z,14.98
2023-05-20T09:36:24.052Z,11.02
2023-05-20T09:39:16.386Z,11.02
2023-05-20T09:42:18.600Z,10.25
2023-05-20T09:45:12.218Z,11.43
2023-05-20T09:48:02.505Z,10.75
2023-05-20T09:50:56.936Z,8.95
2023-05-20T09:53:47.780Z,11.07
2023-05-20T09:56:42.624Z,9.63
2023-05-20T09:59:32.450Z,9.20
2023-05-20T10:02:23.075Z,10.90
2023-05-20T10:05:40.868Z,10.55
2023-05-20T10:08:51.956Z,10.30
2023-05-20T10:11:49.688Z,10.43
2023-05-20T10:14:46.353Z,10.68
2023-05-20T10:18:06.151Z,9.88
2023-05-20T10:20:54.039Z,9.27
2023-05-20T10:23:53.976Z,8.60
2023-05-20T10:26:42.926Z,12.73
2023-05-20T10:29:42.647Z,12.40
2023-05-20T10:32:36.315Z,10.70
2023-05-20T10:35:28.127Z,9.77
2023-05-20T10:38:16.169Z,9.68
2023-05-20T10:41:12.940Z,9.98
2023-05-20T10:44:04.937Z,9.85
2023-05-20T10:49:55.033Z,9.32
2023-05-20T10:52:43.670Z,9.45
2023-05-20T10:55:40.613Z,11.05
2023-05-20T10:58:28.378Z,11.10
2023-05-20T11:01:26.432Z,11.95
2023-05-20T11:04:20.912Z,9.13
2023-05-20T11:07:11.436Z,8.98
2023-05-20T11:10:04.066Z,9.73
2023-05-20T11:12:54.200Z,9.98
2023-05-20T11:15:43.248Z,9.60
2023-05-20T11:18:34.729Z,10.55
2023-05-20T11:21:26.955Z,8.88
2023-05-20T11:24:25.999Z,9.50
2023-05-20T11:27:18.358Z,7.22
2023-05-20T11:30:18.998Z,8.23
2023-05-20T11:33:14.650Z,8.23
2023-05-20T11:36:08.618Z,9.25
2023-05-20T11:39:05.705Z,8.30
2023-05-20T11:41:55.933Z,7.60
2023-05-20T11:44:49.548Z,9.60
2023-05-20T11:47:37.874Z,8.93
2023-05-20T11:50:27.093Z,9.07
2023-05-20T11:53:19.314Z,9.40
2023-05-20T11:56:08.479Z,9.98
2023-05-20T11:58:59.018Z,10.35
2023-05-20T12:01:50.260Z,9.57
2023-05-20T12:04:40.677Z,9.65
2023-05-20T12:07:31.202Z,11.02
2023-05-20T12:10:23.167Z,10.80
2023-05-20T12:13:24.085Z,11.38
2023-05-20T12:16:15.483Z,10.23
2023-05-20T12:19:06.546Z,12.20
2023-05-20T12:21:57.133Z,10.70
2023-05-20T12:24:47.835Z,10.98
2023-05-20T12:27:53.621Z,10.18
2023-05-20T12:30:44.092Z,11.27
2023-05-20T12:33:38.816Z,10.38
2023-05-20T12:36:31.713Z,12.95
2023-05-20T12:39:25.338Z,10.18
2023-05-20T12:42:18.738Z,11.30
2023-05-20T12:45:07.914Z,11.20
2023-05-20T12:48:02.187Z,10.80
2023-05-20T12:50:55.205Z,11.15
2023-05-20T12:53:46.675Z,11.45
2023-05-20T12:56:41.351Z,10.02
2023-05-20T12:59:34.427Z,10.80
2023-05-20T13:02:24.641Z,11.13
2023-05-20T13:05:21.090Z,11.10
2023-05-20T13:08:11.431Z,12.10
2023-05-20T13:11:04.212Z,10.80
2023-05-20T13:13:59.597Z,11.07
2023-05-20T13:16:58.254Z,11.05
2023-05-20T13:19:51.552Z,10.68
2023-05-20T13:22:40.966Z,11.75
2023-05-20T13:25:33.059Z,11.82
2023-05-20T13:28:24.906Z,11.55
2023-05-20T13:31:17.639Z,12.88
2023-05-20T13:34:10.476Z,10.15
2023-05-20T13:36:59.962Z,10.60
2023-05-20T13:39:49.832Z,9.60
2023-05-20T13:42:39.402Z,10.23
2023-05-20T13:45:33.092Z,10.88
2023-05-20T13:48:24.310Z,10.68
2023-05-20T13:51:13.656Z,10.93
2023-05-20T13:54:07.892Z,11.40
2023-05-20T13:57:01.416Z,10.65
2023-05-20T13:59:51.198Z,10.48
2023-05-20T14:02:41.689Z,9.50
2023-05-20T14:05:37.989Z,10.00
2023-05-20T14:08:29.960Z,10.98
2023-05-20T14:11:22.280Z,9.70
2023-05-20T14:14:16.287Z,11.35
2023-05-20T14:17:09.864Z,10.75
2023-05-20T14:20:00.707Z,10.18
2023-05-20T14:22:50.699Z,11.98
2023-05-20T14:25:40.835Z,11.07
2023-05-20T14:28:28.591Z,11.60
2023-05-20T14:31:22.514Z,11.07
2023-05-20T14:37:06.027Z,10.60
2023-05-20T14:39:58.722Z,11.23
2023-05-20T14:42:49.015Z,10.23
2023-05-20T14:45:39.329Z,10.23
2023-05-20T14:48:28.351Z,8.95
2023-05-20T14:51:16.536Z,10.38
2023-05-20T14:54:07.080Z,10.95
2023-05-20T14:56:56.493Z,9.48
2023-05-20T14:59:46.977Z,10.35
2023-05-20T15:02:36.763Z,9.70
2023-05-20T15:05:27.541Z,10.90
2023-05-20T15:08:16.960Z,13.35
2023-05-20T15:11:04.970Z,11.15
2023-05-20T15:13:53.059Z,10.88
2023-05-20T15:16:44.242Z,10.23
2023-05-20T15:19:36.982Z,11.98
2023-05-20T15:22:28.448Z,11.82
2023-05-20T15:28:21.037Z,11.80
2023-05-20T15:31:10.804Z,14.63
2023-05-20T15:34:02.649Z,10.48
2023-05-20T15:36:52.176Z,13.82
2023-05-20T15:39:40.037Z,13.00
2023-05-20T15:42:30.531Z,12.07
2023-05-20T15:45:18.468Z,14.00
2023-05-20T15:48:09.655Z,12.95
2023-05-20T15:50:57.591Z,12.27
2023-05-20T15:53:48.222Z,12.23
2023-05-20T15:56:38.830Z,11.30
2023-05-20T15:59:26.780Z,11.85
2023-05-20T16:02:16.096Z,11.73
2023-05-20T16:05:08.048Z,10.90
2023-05-20T16:07:57.797Z,10.55
2023-05-20T16:10:50.862Z,11.13
2023-05-20T16:13:41.399Z,10.23
2023-05-20T16:16:34.353Z,10.27
2023-05-20T16:19:24.792Z,11.50
2023-05-20T16:22:14.168Z,10.68
2023-05-20T16:25:03.105Z,12.50
2023-05-20T16:27:51.452Z,13.68
2023-05-20T16:30:40.707Z,12.05
2023-05-20T16:33:28.604Z,14.73
2023-05-20T16:36:19.329Z,16.60
2023-05-20T16:39:07.459Z,11.35
2023-05-20T16:41:55.229Z,14.13
2023-05-20T16:44:43.026Z,13.25
2023-05-20T16:47:34.403Z,12.45
2023-05-20T16:50:22.240Z,12.88
2023-05-20T16:53:13.562Z,13.95
2023-05-20T16:56:03.170Z,13.35
2023-05-20T17:01:53.718Z,14.82
2023-05-20T17:04:41.758Z,13.68
2023-05-20T17:07:29.661Z,15.05
2023-05-20T17:10:18.288Z,14.93
2023-05-20T17:13:08.732Z,13.73
2023-05-20T17:15:56.717Z,15.27
2023-05-20T17:18:44.365Z,14.68
2023-05-20T17:21:32.797Z,16.02
2023-05-20T17:24:20.619Z,15.73
2023-05-20T17:27:08.465Z,16.33
2023-05-20T17:29:56.399Z,17.75
2023-05-20T17:32:44.411Z,19.05
2023-05-20T17:35:32.291Z,16.92
2023-05-20T17:38:22.418Z,16.73
2023-05-20T17:41:10.365Z,17.50
2023-05-20T17:43:58.181Z,17.75
2023-05-20T17:46:46.575Z,19.10
2023-05-20T17:49:34.290Z,17.25
2023-05-20T17:52:21.950Z,18.10
2023-05-20T17:55:10.096Z,18.95
2023-05-20T17:57:58.030Z,19.63
2023-05-20T18:00:45.986Z,19.00
2023-05-20T18:03:34.039Z,20.05
2023-05-20T18:06:21.760Z,18.77
2023-05-20T18:09:10.250Z,20.45
2023-05-20T18:12:00.532Z,18.58
2023-05-20T18:14:48.569Z,18.55
2023-05-20T18:17:37.974Z,19.50
2023-05-20T18:20:27.177Z,17.88
2023-05-20T18:23:15.170Z,20.02
2023-05-20T18:26:07.194Z,19.92
2023-05-20T18:28:54.921Z,22.00
2023-05-20T18:31:43.655Z,19.25
2023-05-20T18:34:33.448Z,24.58
2023-05-20T18:37:21.053Z,21.40
2023-05-20T18:40:09.517Z,20.30
2023-05-20T18:43:00.053Z,22.00
2023-05-20T18:45:50.310Z,20.92
2023-05-20T18:48:38.085Z,23.75
2023-05-20T18:51:25.863Z,21.25
2023-05-20T18:54:13.952Z,21.58
2023-05-20T18:57:05.631Z,23.20
2023-05-20T18:59:53.281Z,22.85
2023-05-20T19:02:41.921Z,23.63
2023-05-20T19:05:30.222Z,23.88
2023-05-20T19:08:18.194Z,23.63
2023-05-20T19:11:08.218Z,24.98
2023-05-20T19:13:57.779Z,27.20
2023-05-20T19:16:45.561Z,23.85
2023-05-20T19:19:33.822Z,31.00
2023-05-20T19:22:21.652Z,24.90
2023-05-20T19:25:09.571Z,26.60
2023-05-20T19:27:57.480Z,26.27
2023-05-20T19:30:46.439Z,24.77
2023-05-20T19:33:38.044Z,24.80
2023-05-20T19:36:26.587Z,24.35
2023-05-20T19:39:15.125Z,24.70
2023-05-20T19:42:17.369Z,24.95
2023-05-20T19:45:11.120Z,22.80
2023-05-20T19:47:59.760Z,25.50
2023-05-20T19:50:51.530Z,25.30
2023-05-20T19:53:52.291Z,25.00
2023-05-20T19:56:47.788Z,25.20
2023-05-20T19:59:37.751Z,24.52
2023-05-20T20:02:27.922Z,26.95
2023-05-20T20:05:19.898Z,25.15
2023-05-20T20:08:08.886Z,26.55
2023-05-20T20:10:56.902Z,25.98
2023-05-20T20:13:51.700Z,23.13
2023-05-20T20:16:39.880Z,24.13
2023-05-20T20:19:28.952Z,23.75
2023-05-20T20:22:20.475Z,24.10
2023-05-20T20:25:14.206Z,23.45
2023-05-20T20:28:01.921Z,30.60
2023-05-20T20:30:49.740Z,24.08
2023-05-20T20:33:37.927Z,29.25
2023-05-20T20:36:25.918Z,27.17
2023-05-20T20:39:30.915Z,25.38
2023-05-20T20:42:18.943Z,24.73
2023-05-20T20:45:07.407Z,24.58
2023-05-20T20:48:01.903Z,25.23
2023-05-20T20:50:49.787Z,29.23
2023-05-20T20:53:38.256Z,23.58
2023-05-20T20:56:29.900Z,25.02
2023-05-20T20:59:18.679Z,25.02
2023-05-20T21:02:06.995Z,29.17
2023-05-20T21:04:59.149Z,25.48
2023-05-20T21:07:50.175Z,24.98
2023-05-20T21:10:38.273Z,24.35
2023-05-20T21:13:27.764Z,23.50
2023-05-20T21:16:18.756Z,24.58
2023-05-20T21:19:12.822Z,26.23
2023-05-20T21:22:00.794Z,24.30
2023-05-20T21:24:48.690Z,24.13
2023-05-20T21:27:43.004Z,24.15
2023-05-20T21:30:34.996Z,23.98
2023-05-20T21:33:23.320Z,26.20
2023-05-20T21:36:11.102Z,23.05
2023-05-20T21:38:58.918Z,23.05
2023-05-20T21:41:46.696Z,27.40
2023-05-20T21:44:35.750Z,26.05
2023-05-20T21:47:23.610Z,25.23
2023-05-20T21:50:11.782Z,27.15
2023-05-20T21:52:59.536Z,25.60
2023-05-20T21:55:47.477Z,24.80
2023-05-20T21:58:41.014Z,22.73
2023-05-20T22:01:31.460Z,26.80
2023-05-20T22:04:30.788Z,27.25
2023-05-20T22:07:21.760Z,23.85
2023-05-20T22:10:23.529Z,25.23
2023-05-20T22:13:13.772Z,25.25
2023-05-20T22:16:05.038Z,25.63
2023-05-20T22:18:56.542Z,29.83
2023-05-20T22:24:36.004Z,25.63
2023-05-20T22:27:24.172Z,25.35
2023-05-20T22:30:12.931Z,23.65
2023-05-20T22:33:00.907Z,27.75
2023-05-20T22:35:48.937Z,24.17
2023-05-20T22:38:37.661Z,24.73
2023-05-20T22:41:29.333Z,22.60
2023-05-20T22:44:20.052Z,27.00
2023-05-20T22:47:08.006Z,22.58
2023-05-20T22:49:57.549Z,22.92
2023-05-20T22:52:45.176Z,24.45
2023-05-20T22:55:33.318Z,26.08
2023-05-20T22:58:21.286Z,22.77
2023-05-20T23:01:10.578Z,25.38
2023-05-20T23:03:58.444Z,27.40
2023-05-20T23:06:46.258Z,27.23
2023-05-20T23:09:34.000Z,24.85
2023-05-20T23:12:21.923Z,23.98
2023-05-20T23:15:10.245Z,28.98
2023-05-20T23:17:58.569Z,26.27
2023-05-20T23:20:47.685Z,27.92
2023-05-20T23:23:35.491Z,24.65
2023-05-20T23:26:24.197Z,25.58
2023-05-20T23:29:12.150Z,25.00
2023-05-20T23:32:00.184Z,25.48
2023-05-20T23:34:48.040Z,23.13
2023-05-20T23:37:36.252Z,25.48
2023-05-20T23:40:23.969Z,23.98
2023-05-20T23:43:11.811Z,24.08
2023-05-20T23:45:59.760Z,28.98
2023-05-20T23:48:48.558Z,25.52
2023-05-20T23:51:36.309Z,26.77
2023-05-20T23:54:24.033Z,24.42
2023-05-20T23:57:12.105Z,22.40
2023-05-20T23:59:59.902Z,26.75
